createdAt,value
2023-01-08T00:01:10.771Z,-21.81
2023-01-08T00:03:38.640Z,-21.77
2023-01-08T00:06:07.525Z,-21.76
2023-01-08T00:08:34.592Z,-21.72
2023-01-08T00:11:01.242Z,-21.71
2023-01-08T00:13:28.300Z,-21.67
2023-01-08T00:15:55.359Z,-21.69
2023-01-08T00:18:22.376Z,-21.64
2023-01-08T00:20:49.032Z,-21.65
2023-01-08T00:23:18.161Z,-21.63
2023-01-08T00:25:44.870Z,-21.64
2023-01-08T00:28:11.777Z,-21.69
2023-01-08T00:30:38.544Z,-21.69
2023-01-08T00:33:05.043Z,-21.76
2023-01-08T00:35:31.628Z,-21.74
2023-01-08T00:37:58.245Z,-21.83
2023-01-08T00:40:24.849Z,-21.83
2023-01-08T00:42:51.483Z,-21.78
2023-01-08T00:45:17.934Z,-21.78
2023-01-08T00:47:44.404Z,-21.76
2023-01-08T00:50:11.192Z,-21.75
2023-01-08T00:52:38.336Z,-21.71
2023-01-08T00:55:05.387Z,-21.70
2023-01-08T00:57:36.076Z,-21.72
2023-01-08T01:00:03.855Z,-21.74
2023-01-08T01:02:30.412Z,-21.73
2023-01-08T01:04:57.057Z,-21.69
2023-01-08T01:07:23.720Z,-21.72
2023-01-08T01:09:50.271Z,-21.74
2023-01-08T01:12:16.993Z,-21.81
2023-01-08T01:14:43.551Z,-21.84
2023-01-08T01:17:12.371Z,-21.93
2023-01-08T01:19:39.399Z,-21.88
2023-01-08T01:22:05.883Z,-21.83
2023-01-08T01:24:32.961Z,-21.86
2023-01-08T01:26:59.716Z,-21.80
2023-01-08T01:29:26.463Z,-21.82
2023-01-08T01:31:53.009Z,-21.84
2023-01-08T01:34:19.544Z,-21.83
2023-01-08T01:36:46.323Z,-21.88
2023-01-08T01:39:12.855Z,-21.86
2023-01-08T01:41:42.028Z,-21.82
2023-01-08T01:44:33.435Z,-21.86
2023-01-08T01:47:02.906Z,-21.89
2023-01-08T01:49:30.223Z,-21.88
2023-01-08T01:52:00.753Z,-21.88
2023-01-08T01:54:27.381Z,-21.82
2023-01-08T01:56:54.542Z,-21.89
2023-01-08T01:59:21.109Z,-21.84
2023-01-08T02:01:48.067Z,-21.84
2023-01-08T02:04:14.765Z,-21.92
2023-01-08T02:06:58.594Z,-21.94
2023-01-08T02:09:32.903Z,-22.00
2023-01-08T02:12:08.114Z,-22.05
2023-01-08T02:14:42.929Z,-22.05
2023-01-08T02:17:17.814Z,-22.06
2023-01-08T02:19:54.860Z,-22.03
2023-01-08T02:22:35.830Z,-22.09
2023-01-08T02:25:20.574Z,-22.07
2023-01-08T02:27:51.187Z,-22.08
2023-01-08T02:30:18.772Z,-22.06
2023-01-08T02:32:45.556Z,-22.06
2023-01-08T02:35:12.878Z,-22.00
2023-01-08T02:37:40.775Z,-22.00
2023-01-08T02:40:14.143Z,-22.02
2023-01-08T02:42:55.238Z,-21.99
2023-01-08T02:45:47.789Z,-22.04
2023-01-08T02:48:38.710Z,-22.02
2023-01-08T02:51:15.655Z,-21.97
2023-01-08T02:53:45.934Z,-21.97
2023-01-08T02:56:17.677Z,-21.99
2023-01-08T02:58:45.385Z,-21.97
2023-01-08T03:01:14.157Z,-21.96
2023-01-08T03:03:46.102Z,-21.93
2023-01-08T03:06:18.680Z,-21.87
2023-01-08T03:08:48.832Z,-21.92
2023-01-08T03:11:19.411Z,-21.97
2023-01-08T03:13:51.138Z,-21.97
2023-01-08T03:16:31.784Z,-22.00
2023-01-08T03:19:07.462Z,-21.94
2023-01-08T03:21:37.816Z,-21.97
2023-01-08T03:24:05.754Z,-21.99
2023-01-08T03:26:34.438Z,-21.95
2023-01-08T03:29:02.970Z,-21.98
2023-01-08T03:31:30.337Z,-22.01
2023-01-08T03:33:58.067Z,-22.03
2023-01-08T03:36:28.354Z,-22.01
2023-01-08T03:39:12.186Z,-22.03
2023-01-08T03:41:38.891Z,-22.08
2023-01-08T03:44:05.679Z,-22.06
2023-01-08T03:46:35.843Z,-22.09
2023-01-08T03:49:05.040Z,-22.07
2023-01-08T03:51:43.549Z,-22.18
2023-01-08T03:54:22.950Z,-22.23
2023-01-08T03:56:49.462Z,-22.24
2023-01-08T03:59:16.447Z,-22.24
2023-01-08T04:01:43.627Z,-22.21
2023-01-08T04:04:11.424Z,-22.17
2023-01-08T04:06:38.077Z,-22.18
2023-01-08T04:09:05.013Z,-22.13
2023-01-08T04:11:32.178Z,-22.13
2023-01-08T04:13:59.127Z,-22.03
2023-01-08T04:16:25.842Z,-22.02
2023-01-08T04:18:52.367Z,-22.01
2023-01-08T04:21:19.077Z,-22.02
2023-01-08T04:23:45.681Z,-21.98
2023-01-08T04:26:12.217Z,-21.98
2023-01-08T04:28:38.763Z,-21.96
2023-01-08T04:31:09.094Z,-21.95
2023-01-08T04:33:36.133Z,-21.95
2023-01-08T04:36:03.794Z,-21.94
2023-01-08T04:38:30.581Z,-21.88
2023-01-08T04:40:58.036Z,-21.86
2023-01-08T04:43:25.290Z,-21.87
2023-01-08T04:45:52.559Z,-21.81
2023-01-08T04:48:19.273Z,-21.79
2023-01-08T04:50:45.855Z,-21.81
2023-01-08T04:53:12.379Z,-21.80
2023-01-08T04:55:39.817Z,-21.91
2023-01-08T04:58:06.510Z,-21.91
2023-01-08T05:00:33.172Z,-21.86
2023-01-08T05:02:59.963Z,-21.82
2023-01-08T05:05:26.568Z,-21.81
2023-01-08T05:07:53.514Z,-21.80
2023-01-08T05:10:20.058Z,-21.83
2023-01-08T05:12:46.600Z,-21.84
2023-01-08T05:15:13.239Z,-21.88
2023-01-08T05:17:39.721Z,-21.86
2023-01-08T05:20:06.697Z,-21.78
2023-01-08T05:22:33.266Z,-21.71
2023-01-08T05:24:59.826Z,-21.61
2023-01-08T05:27:28.642Z,-21.51
2023-01-08T05:29:55.148Z,-21.44
2023-01-08T05:32:21.725Z,-21.36
2023-01-08T05:34:48.188Z,-21.28
2023-01-08T05:37:14.697Z,-21.24
2023-01-08T05:39:41.183Z,-21.18
2023-01-08T05:42:07.869Z,-21.12
2023-01-08T05:44:34.438Z,-21.08
2023-01-08T05:47:01.738Z,-20.96
2023-01-08T05:49:28.219Z,-20.81
2023-01-08T05:51:54.783Z,-20.55
2023-01-08T05:54:21.347Z,-20.17
2023-01-08T05:56:47.868Z,-19.77
2023-01-08T05:59:14.632Z,-19.17
2023-01-08T06:01:41.326Z,-18.83
2023-01-08T06:04:08.269Z,-18.82
2023-01-08T06:06:34.965Z,-18.16
2023-01-08T06:09:01.573Z,-17.51
2023-01-08T06:11:28.111Z,-17.68
2023-01-08T06:13:54.667Z,-18.22
2023-01-08T06:16:21.219Z,-18.38
2023-01-08T06:18:47.755Z,-17.82
2023-01-08T06:21:14.331Z,-16.71
2023-01-08T06:23:41.180Z,-15.95
2023-01-08T06:26:07.667Z,-16.20
2023-01-08T06:28:34.612Z,-15.75
2023-01-08T06:31:02.150Z,-14.38
2023-01-08T06:33:29.713Z,-13.31
2023-01-08T06:36:00.524Z,-12.21
2023-01-08T06:38:27.003Z,-11.59
2023-01-08T06:40:53.621Z,-10.93
2023-01-08T06:43:23.180Z,-10.60
2023-01-08T06:45:57.129Z,-10.17
2023-01-08T06:48:24.477Z,-10.17
2023-01-08T06:50:51.519Z,-10.08
2023-01-08T06:53:18.307Z,-10.12
2023-01-08T06:55:44.884Z,-9.78
2023-01-08T06:58:12.339Z,-9.41
2023-01-08T07:00:39.589Z,-9.14
2023-01-08T07:03:06.895Z,-8.81
2023-01-08T07:05:33.498Z,-8.25
2023-01-08T07:08:00.104Z,-7.96
2023-01-08T07:10:26.898Z,-7.83
2023-01-08T07:12:53.537Z,-7.93
2023-01-08T07:15:20.028Z,-8.24
2023-01-08T07:17:46.555Z,-7.76
2023-01-08T07:20:15.588Z,-7.48
2023-01-08T07:22:42.997Z,-7.39
2023-01-08T07:25:09.854Z,-7.10
2023-01-08T07:27:36.376Z,-7.15
2023-01-08T07:30:03.142Z,-6.84
2023-01-08T07:32:29.874Z,-7.05
2023-01-08T07:34:56.440Z,-6.45
2023-01-08T07:37:22.919Z,-6.66
2023-01-08T07:39:49.588Z,-6.25
2023-01-08T07:42:16.475Z,-6.73
2023-01-08T07:44:43.062Z,-6.45
2023-01-08T07:47:09.667Z,-6.35
2023-01-08T07:49:36.156Z,-6.25
2023-01-08T07:52:02.664Z,-6.51
2023-01-08T07:54:29.261Z,-6.78
2023-01-08T07:56:55.786Z,-6.81
2023-01-08T07:59:22.329Z,-6.75
2023-01-08T08:01:48.995Z,-6.92
2023-01-08T08:04:15.804Z,-6.61
2023-01-08T08:06:42.304Z,-5.91
2023-01-08T08:09:08.848Z,-6.29
2023-01-08T08:11:35.410Z,-6.51
2023-01-08T08:14:01.895Z,-6.30
2023-01-08T08:16:28.559Z,-6.26
2023-01-08T08:18:55.073Z,-6.46
2023-01-08T08:21:21.553Z,-6.50
2023-01-08T08:23:48.036Z,-6.50
2023-01-08T08:26:14.560Z,-6.45
2023-01-08T08:28:41.238Z,-6.15
2023-01-08T08:31:07.847Z,-5.95
2023-01-08T08:33:34.468Z,-6.01
2023-01-08T08:36:01.268Z,-6.07
2023-01-08T08:38:27.825Z,-6.62
2023-01-08T08:40:54.602Z,-6.16
2023-01-08T08:43:21.120Z,-6.33
2023-01-08T08:45:47.711Z,-5.99
2023-01-08T08:48:14.513Z,-5.95
2023-01-08T08:50:41.157Z,-5.85
2023-01-08T08:53:07.820Z,-6.03
2023-01-08T08:55:34.685Z,-5.70
2023-01-08T08:58:13.078Z,-6.28
2023-01-08T09:00:41.237Z,-5.82
2023-01-08T09:03:12.586Z,-5.81
2023-01-08T09:05:39.296Z,-5.48
2023-01-08T09:08:06.063Z,-5.63
2023-01-08T09:10:32.643Z,-5.56
2023-01-08T09:12:59.941Z,-5.44
2023-01-08T09:15:26.493Z,-5.81
2023-01-08T09:17:57.030Z,-6.09
2023-01-08T09:20:25.871Z,-6.33
2023-01-08T09:22:52.808Z,-5.96
2023-01-08T09:25:19.516Z,-6.21
2023-01-08T09:27:46.217Z,-6.90
2023-01-08T09:30:12.990Z,-8.78
2023-01-08T09:32:39.536Z,-9.89
2023-01-08T09:35:06.484Z,-11.01
2023-01-08T09:37:33.061Z,-11.56
2023-01-08T09:40:02.488Z,-12.01
2023-01-08T09:42:31.042Z,-12.36
2023-01-08T09:44:59.277Z,-12.51
2023-01-08T09:47:35.554Z,-12.80
2023-01-08T09:50:06.482Z,-13.11
2023-01-08T09:52:33.034Z,-13.09
2023-01-08T09:55:02.568Z,-12.98
2023-01-08T09:57:29.488Z,-12.90
2023-01-08T09:59:56.125Z,-12.94
2023-01-08T10:02:25.506Z,-13.10
2023-01-08T10:05:00.672Z,-13.04
2023-01-08T10:07:29.061Z,-13.25
2023-01-08T10:09:56.236Z,-13.35
2023-01-08T10:12:31.143Z,-13.52
2023-01-08T10:15:01.773Z,-13.55
2023-01-08T10:17:37.296Z,-13.57
2023-01-08T10:20:25.027Z,-13.68
2023-01-08T10:22:53.212Z,-13.72
2023-01-08T10:25:23.768Z,-13.58
2023-01-08T10:27:58.136Z,-13.49
2023-01-08T10:30:37.885Z,-13.31
2023-01-08T10:33:10.807Z,-13.27
2023-01-08T10:35:40.060Z,-13.11
2023-01-08T10:38:06.673Z,-12.87
2023-01-08T10:40:34.026Z,-12.59
2023-01-08T10:43:18.297Z,-12.36
2023-01-08T10:45:59.749Z,-12.07
2023-01-08T10:48:34.819Z,-11.86
2023-01-08T10:51:13.388Z,-11.72
2023-01-08T10:53:40.008Z,-11.63
2023-01-08T10:56:06.717Z,-11.63
2023-01-08T10:58:43.228Z,-11.53
2023-01-08T11:01:12.672Z,-11.74
2023-01-08T11:03:40.766Z,-11.83
2023-01-08T11:06:12.938Z,-11.94
2023-01-08T11:08:47.910Z,-11.91
2023-01-08T11:11:14.580Z,-11.66
2023-01-08T11:13:41.333Z,-11.62
2023-01-08T11:16:10.168Z,-11.57
2023-01-08T11:18:57.172Z,-11.64
2023-01-08T11:21:31.169Z,-11.67
2023-01-08T11:24:27.030Z,-11.71
2023-01-08T11:27:05.575Z,-11.63
2023-01-08T11:29:52.160Z,-11.68
2023-01-08T11:32:33.620Z,-11.73
2023-01-08T11:35:12.441Z,-11.77
2023-01-08T11:37:41.489Z,-11.70
2023-01-08T11:40:15.006Z,-11.87
2023-01-08T11:43:11.896Z,-11.85
2023-01-08T11:46:15.823Z,-11.92
2023-01-08T11:49:07.167Z,-11.81
2023-01-08T11:52:07.757Z,-11.86
2023-01-08T11:55:05.582Z,-11.88
2023-01-08T11:57:37.838Z,-11.90
2023-01-08T12:00:07.060Z,-11.92
2023-01-08T12:02:50.631Z,-11.94
2023-01-08T12:05:22.900Z,-12.05
2023-01-08T12:08:04.426Z,-12.07
2023-01-08T12:10:53.282Z,-12.10
2023-01-08T12:13:57.195Z,-12.09
2023-01-08T12:16:42.116Z,-12.12
2023-01-08T12:19:37.244Z,-12.25
2023-01-08T12:22:12.634Z,-12.33
2023-01-08T12:25:16.279Z,-12.53
2023-01-08T12:27:56.799Z,-12.60
2023-01-08T12:31:10.439Z,-12.64
2023-01-08T12:33:54.419Z,-12.70
2023-01-08T12:36:26.357Z,-12.72
2023-01-08T12:39:01.571Z,-12.71
2023-01-08T12:41:32.288Z,-12.72
2023-01-08T12:44:04.294Z,-12.72
2023-01-08T12:46:34.182Z,-12.80
2023-01-08T12:49:02.084Z,-12.89
2023-01-08T12:51:35.403Z,-12.86
2023-01-08T12:54:22.252Z,-12.95
2023-01-08T12:57:07.953Z,-13.03
2023-01-08T12:59:59.254Z,-13.12
2023-01-08T13:03:00.509Z,-13.25
2023-01-08T13:05:35.733Z,-13.27
2023-01-08T13:08:03.761Z,-13.38
2023-01-08T13:10:48.150Z,-13.34
2023-01-08T13:13:28.215Z,-13.32
2023-01-08T13:16:17.237Z,-13.28
2023-01-08T13:18:58.711Z,-13.23
2023-01-08T13:21:35.964Z,-13.17
2023-01-08T13:24:23.860Z,-13.18
2023-01-08T13:26:50.507Z,-13.23
2023-01-08T13:29:27.538Z,-13.17
2023-01-08T13:31:54.392Z,-13.11
2023-01-08T13:34:36.318Z,-13.10
2023-01-08T13:37:02.863Z,-13.13
2023-01-08T13:39:38.055Z,-13.11
2023-01-08T13:42:10.871Z,-13.11
2023-01-08T13:44:48.505Z,-13.11
2023-01-08T13:47:20.870Z,-13.15
2023-01-08T13:49:51.410Z,-13.13
2023-01-08T13:52:44.080Z,-13.12
2023-01-08T13:55:21.572Z,-13.30
2023-01-08T13:57:57.512Z,-13.25
2023-01-08T14:00:28.949Z,-13.24
2023-01-08T14:02:55.565Z,-13.36
2023-01-08T14:05:28.734Z,-13.28
2023-01-08T14:07:56.092Z,-13.26
2023-01-08T14:10:23.624Z,-13.19
2023-01-08T14:12:50.517Z,-13.15
2023-01-08T14:15:24.536Z,-13.10
2023-01-08T14:17:52.012Z,-13.10
2023-01-08T14:20:29.232Z,-13.07
2023-01-08T14:22:55.934Z,-13.07
2023-01-08T14:25:22.997Z,-13.01
2023-01-08T14:28:02.154Z,-13.02
2023-01-08T14:30:29.614Z,-12.99
2023-01-08T14:32:57.685Z,-12.95
2023-01-08T14:35:30.044Z,-12.96
2023-01-08T14:37:56.786Z,-13.06
2023-01-08T14:40:40.548Z,-13.01
2023-01-08T14:43:14.265Z,-13.02
2023-01-08T14:45:47.520Z,-13.03
2023-01-08T14:48:26.013Z,-12.98
2023-01-08T14:51:07.992Z,-12.97
2023-01-08T14:53:43.362Z,-12.98
2023-01-08T14:56:17.789Z,-13.00
2023-01-08T14:58:45.779Z,-12.96
2023-01-08T15:01:23.111Z,-12.85
2023-01-08T15:03:52.145Z,-12.78
2023-01-08T15:06:30.944Z,-12.85
2023-01-08T15:09:00.013Z,-12.79
2023-01-08T15:11:30.954Z,-12.81
2023-01-08T15:13:58.283Z,-12.83
2023-01-08T15:16:39.133Z,-12.90
2023-01-08T15:19:27.307Z,-12.94
2023-01-08T15:21:56.698Z,-12.90
2023-01-08T15:25:08.403Z,-12.95
2023-01-08T15:27:35.041Z,-12.92
2023-01-08T15:30:01.819Z,-12.88
2023-01-08T15:32:34.224Z,-12.87
2023-01-08T15:35:01.381Z,-12.85
2023-01-08T15:37:28.286Z,-12.87
2023-01-08T15:39:54.899Z,-12.84
2023-01-08T15:42:29.699Z,-12.79
2023-01-08T15:44:56.279Z,-12.73
2023-01-08T15:47:23.558Z,-12.75
2023-01-08T15:49:50.059Z,-12.75
2023-01-08T15:52:25.165Z,-12.73
2023-01-08T15:54:51.707Z,-12.75
2023-01-08T15:57:18.307Z,-12.78
2023-01-08T15:59:45.724Z,-12.78
2023-01-08T16:02:12.360Z,-12.76
2023-01-08T16:04:38.947Z,-12.76
2023-01-08T16:07:05.726Z,-12.73
2023-01-08T16:09:32.237Z,-12.72
2023-01-08T16:11:59.080Z,-12.77
2023-01-08T16:14:25.867Z,-12.76
2023-01-08T16:16:52.410Z,-12.74
2023-01-08T16:19:18.942Z,-12.69
2023-01-08T16:21:45.527Z,-12.67
2023-01-08T16:24:13.416Z,-12.64
2023-01-08T16:26:40.189Z,-12.63
2023-01-08T16:29:06.847Z,-12.63
2023-01-08T16:31:33.354Z,-12.61
2023-01-08T16:34:04.007Z,-12.65
2023-01-08T16:36:31.175Z,-12.71
2023-01-08T16:38:57.770Z,-12.71
2023-01-08T16:41:25.248Z,-12.72
2023-01-08T16:43:52.019Z,-12.73
2023-01-08T16:46:18.557Z,-12.72
2023-01-08T16:48:45.597Z,-12.75
2023-01-08T16:51:15.171Z,-12.77
2023-01-08T16:53:41.856Z,-12.80
2023-01-08T16:56:09.420Z,-12.75
2023-01-08T16:58:37.000Z,-12.73
2023-01-08T17:01:09.339Z,-12.71
2023-01-08T17:03:35.998Z,-12.70
2023-01-08T17:06:07.819Z,-12.73
2023-01-08T17:08:34.422Z,-12.79
2023-01-08T17:11:00.947Z,-12.90
2023-01-08T17:13:27.808Z,-13.07
2023-01-08T17:15:54.463Z,-13.23
2023-01-08T17:18:21.089Z,-13.33
2023-01-08T17:20:54.744Z,-13.45
2023-01-08T17:23:21.260Z,-13.50
2023-01-08T17:25:47.737Z,-13.66
2023-01-08T17:28:14.228Z,-13.81
2023-01-08T17:30:40.759Z,-13.95
2023-01-08T17:33:08.114Z,-14.11
2023-01-08T17:35:34.676Z,-14.25
2023-01-08T17:38:01.298Z,-14.38
2023-01-08T17:40:28.109Z,-14.50
2023-01-08T17:42:55.656Z,-14.57
2023-01-08T17:45:22.310Z,-14.58
2023-01-08T17:47:48.876Z,-14.53
2023-01-08T17:50:15.596Z,-14.47
2023-01-08T17:52:42.053Z,-14.48
2023-01-08T17:55:08.855Z,-14.52
2023-01-08T17:57:35.562Z,-14.57
2023-01-08T18:00:02.080Z,-14.65
2023-01-08T18:02:28.782Z,-14.72
2023-01-08T18:04:55.412Z,-14.79
2023-01-08T18:07:21.933Z,-14.81
2023-01-08T18:09:48.487Z,-14.79
2023-01-08T18:12:15.128Z,-14.74
2023-01-08T18:14:41.677Z,-14.62
2023-01-08T18:17:08.205Z,-14.52
2023-01-08T18:19:34.831Z,-14.41
2023-01-08T18:22:01.454Z,-14.35
2023-01-08T18:24:28.271Z,-14.38
2023-01-08T18:26:54.909Z,-14.43
2023-01-08T18:29:21.450Z,-14.53
2023-01-08T18:31:48.031Z,-14.61
2023-01-08T18:34:14.593Z,-14.68
2023-01-08T18:36:41.058Z,-14.75
2023-01-08T18:39:07.655Z,-14.85
2023-01-08T18:41:34.279Z,-14.94
2023-01-08T18:44:02.186Z,-15.04
2023-01-08T18:46:29.367Z,-15.14
2023-01-08T18:48:56.104Z,-15.24
2023-01-08T18:51:23.272Z,-15.32
2023-01-08T18:53:50.431Z,-15.38
2023-01-08T18:56:32.976Z,-15.52
2023-01-08T18:58:59.907Z,-15.56
2023-01-08T19:01:26.640Z,-15.65
2023-01-08T19:03:53.904Z,-15.73
2023-01-08T19:06:20.435Z,-15.82
2023-01-08T19:08:48.028Z,-15.89
2023-01-08T19:11:15.415Z,-15.96
2023-01-08T19:13:42.220Z,-16.02
2023-01-08T19:16:11.701Z,-16.05
2023-01-08T19:18:38.866Z,-16.12
2023-01-08T19:21:11.422Z,-16.13
2023-01-08T19:23:37.907Z,-16.18
2023-01-08T19:26:08.165Z,-16.21
2023-01-08T19:28:34.877Z,-16.21
2023-01-08T19:31:02.080Z,-16.21
2023-01-08T19:33:29.364Z,-16.19
2023-01-08T19:36:00.398Z,-16.19
2023-01-08T19:38:26.967Z,-16.20
2023-01-08T19:40:58.206Z,-16.20
2023-01-08T19:43:24.698Z,-16.22
2023-01-08T19:45:51.405Z,-16.18
2023-01-08T19:48:17.946Z,-16.11
2023-01-08T19:50:44.553Z,-16.00
2023-01-08T19:53:12.295Z,-15.84
2023-01-08T19:55:40.508Z,-15.67
2023-01-08T19:58:07.053Z,-15.59
2023-01-08T20:00:33.705Z,-15.59
2023-01-08T20:03:00.245Z,-15.65
2023-01-08T20:05:26.785Z,-15.76
2023-01-08T20:07:53.290Z,-15.83
2023-01-08T20:10:20.174Z,-15.96
2023-01-08T20:12:46.735Z,-16.13
2023-01-08T20:15:13.308Z,-16.26
2023-01-08T20:17:42.780Z,-16.34
2023-01-08T20:20:11.050Z,-16.39
2023-01-08T20:22:39.978Z,-16.50
2023-01-08T20:25:07.158Z,-16.59
2023-01-08T20:27:33.780Z,-16.58
2023-01-08T20:30:00.378Z,-16.84
2023-01-08T20:32:27.153Z,-17.13
2023-01-08T20:34:53.764Z,-17.28
2023-01-08T20:37:20.303Z,-17.38
2023-01-08T20:39:46.868Z,-17.40
2023-01-08T20:42:17.613Z,-17.46
2023-01-08T20:44:48.742Z,-17.45
2023-01-08T20:47:15.447Z,-17.46
2023-01-08T20:49:41.940Z,-17.44
2023-01-08T20:52:08.540Z,-17.32
2023-01-08T20:54:35.136Z,-17.17
2023-01-08T20:57:01.652Z,-17.25
2023-01-08T20:59:28.948Z,-17.32
2023-01-08T21:01:55.457Z,-17.37
2023-01-08T21:04:22.274Z,-17.42
2023-01-08T21:06:49.097Z,-17.39
2023-01-08T21:09:15.639Z,-17.37
2023-01-08T21:11:42.426Z,-17.35
2023-01-08T21:14:10.592Z,-17.28
2023-01-08T21:16:37.839Z,-17.13
2023-01-08T21:19:04.427Z,-16.96
2023-01-08T21:21:34.162Z,-16.83
2023-01-08T21:24:02.990Z,-16.69
2023-01-08T21:26:30.370Z,-16.76
2023-01-08T21:28:56.869Z,-16.75
2023-01-08T21:31:25.195Z,-16.86
2023-01-08T21:33:52.060Z,-17.07
2023-01-08T21:36:21.818Z,-17.20
2023-01-08T21:38:49.430Z,-17.48
2023-01-08T21:41:26.281Z,-17.56
2023-01-08T21:43:52.835Z,-17.45
2023-01-08T21:46:20.177Z,-17.34
2023-01-08T21:48:46.755Z,-17.24
2023-01-08T21:51:13.246Z,-17.12
2023-01-08T21:53:39.725Z,-16.97
2023-01-08T21:56:06.518Z,-16.82
2023-01-08T21:58:33.007Z,-16.77
2023-01-08T22:00:59.605Z,-16.79
2023-01-08T22:03:26.203Z,-16.73
2023-01-08T22:06:04.130Z,-16.56
2023-01-08T22:08:31.181Z,-16.50
2023-01-08T22:10:59.150Z,-16.41
2023-01-08T22:13:26.869Z,-16.33
2023-01-08T22:16:08.771Z,-16.35
2023-01-08T22:18:36.515Z,-16.26
2023-01-08T22:21:08.014Z,-16.20
2023-01-08T22:23:34.682Z,-16.24
2023-01-08T22:26:05.972Z,-16.28
2023-01-08T22:28:32.532Z,-16.25
2023-01-08T22:30:59.762Z,-16.27
2023-01-08T22:33:26.281Z,-16.29
2023-01-08T22:35:52.795Z,-16.34
2023-01-08T22:38:19.653Z,-16.27
2023-01-08T22:40:46.297Z,-16.21
2023-01-08T22:43:12.998Z,-16.16
2023-01-08T22:45:39.677Z,-16.04
2023-01-08T22:48:06.234Z,-15.93
2023-01-08T22:50:32.778Z,-15.96
2023-01-08T22:52:59.337Z,-15.99
2023-01-08T22:55:25.837Z,-15.94
2023-01-08T22:57:52.388Z,-16.01
2023-01-08T23:00:19.226Z,-16.15
2023-01-08T23:02:45.907Z,-16.09
2023-01-08T23:05:12.560Z,-16.19
2023-01-08T23:07:39.222Z,-16.26
2023-01-08T23:10:06.313Z,-16.27
2023-01-08T23:12:32.821Z,-16.33
2023-01-08T23:14:59.341Z,-16.42
2023-01-08T23:17:25.822Z,-16.35
2023-01-08T23:19:52.338Z,-16.22
2023-01-08T23:22:18.877Z,-16.09
2023-01-08T23:24:45.447Z,-16.06
2023-01-08T23:27:11.957Z,-16.21
2023-01-08T23:29:38.558Z,-16.37
2023-01-08T23:32:05.268Z,-16.39
2023-01-08T23:34:31.890Z,-16.57
2023-01-08T23:36:58.517Z,-16.60
2023-01-08T23:39:25.118Z,-16.62
2023-01-08T23:41:52.327Z,-16.80
2023-01-08T23:44:19.016Z,-16.94
2023-01-08T23:46:45.503Z,-16.88
2023-01-08T23:49:12.016Z,-16.87
2023-01-08T23:51:38.763Z,-16.89
2023-01-08T23:54:05.364Z,-16.87
2023-01-08T23:56:31.984Z,-16.90
2023-01-08T23:58:58.537Z,-17.03
